createdAt,value
2023-05-10T00:02:05.370Z,8.20
2023-05-10T00:04:33.452Z,5.37
2023-05-10T00:07:01.358Z,6.13
2023-05-10T00:09:29.200Z,5.97
2023-05-10T00:11:59.255Z,5.23
2023-05-10T00:14:27.092Z,5.57
2023-05-10T00:16:55.038Z,6.27
2023-05-10T00:19:24.308Z,6.90
2023-05-10T00:21:52.249Z,5.57
2023-05-10T00:24:20.128Z,6.47
2023-05-10T00:26:47.992Z,8.33
2023-05-10T00:29:15.955Z,6.03
2023-05-10T00:31:43.907Z,6.23
2023-05-10T00:34:11.926Z,10.83
2023-05-10T00:36:41.373Z,5.20
2023-05-10T00:39:09.364Z,5.27
2023-05-10T00:41:37.184Z,6.33
2023-05-10T00:44:06.841Z,7.10
2023-05-10T00:46:34.921Z,5.93
2023-05-10T00:49:02.930Z,8.03
2023-05-10T00:51:32.006Z,4.77
2023-05-10T00:54:02.244Z,6.03
2023-05-10T00:56:30.867Z,5.53
2023-05-10T00:58:58.824Z,7.40
2023-05-10T01:01:26.732Z,7.23
2023-05-10T01:03:54.885Z,7.13
2023-05-10T01:06:22.904Z,6.33
2023-05-10T01:08:50.817Z,4.97
2023-05-10T01:11:20.623Z,5.30
2023-05-10T01:13:53.085Z,5.53
2023-05-10T01:16:21.032Z,4.87
2023-05-10T01:18:50.661Z,7.33
2023-05-10T01:21:23.240Z,6.30
2023-05-10T01:24:11.773Z,7.63
2023-05-10T01:27:09.380Z,7.13
2023-05-10T01:30:14.819Z,6.33
2023-05-10T01:32:48.745Z,5.33
2023-05-10T01:35:19.871Z,5.90
2023-05-10T01:37:52.866Z,7.70
2023-05-10T01:40:25.245Z,7.43
2023-05-10T01:42:56.451Z,8.87
2023-05-10T01:45:29.599Z,8.20
2023-05-10T01:48:07.578Z,5.13
2023-05-10T01:50:37.861Z,8.20
2023-05-10T01:53:09.281Z,6.73
2023-05-10T01:55:41.916Z,8.13
2023-05-10T01:58:12.468Z,6.23
2023-05-10T02:00:44.859Z,7.17
2023-05-10T02:03:15.000Z,5.83
2023-05-10T02:05:43.385Z,5.70
2023-05-10T02:08:11.856Z,5.93
2023-05-10T02:10:41.582Z,7.47
2023-05-10T02:13:10.406Z,5.43
2023-05-10T02:15:38.678Z,7.07
2023-05-10T02:18:07.639Z,6.27
2023-05-10T02:20:37.255Z,7.53
2023-05-10T02:23:05.611Z,5.30
2023-05-10T02:25:34.004Z,7.73
2023-05-10T02:28:04.279Z,6.13
2023-05-10T02:30:33.579Z,6.43
2023-05-10T02:33:01.946Z,5.93
2023-05-10T02:35:30.415Z,5.97
2023-05-10T02:38:01.052Z,7.47
2023-05-10T02:40:30.745Z,5.97
2023-05-10T02:42:59.715Z,6.93
2023-05-10T02:45:30.426Z,6.70
2023-05-10T02:47:58.716Z,7.90
2023-05-10T02:50:29.632Z,5.23
2023-05-10T02:53:04.082Z,6.17
2023-05-10T02:55:35.160Z,5.47
2023-05-10T02:58:22.069Z,8.47
2023-05-10T03:00:49.873Z,8.03
2023-05-10T03:03:17.702Z,5.50
2023-05-10T03:05:45.577Z,5.77
2023-05-10T03:08:14.936Z,8.67
2023-05-10T03:10:51.416Z,4.77
2023-05-10T03:13:28.490Z,7.00
2023-05-10T03:16:00.438Z,7.60
2023-05-10T03:18:33.065Z,7.27
2023-05-10T03:21:06.136Z,8.00
2023-05-10T03:23:39.407Z,6.00
2023-05-10T03:26:07.321Z,7.03
2023-05-10T03:28:36.156Z,6.83
2023-05-10T03:31:06.985Z,7.10
2023-05-10T03:33:35.506Z,5.87
2023-05-10T03:36:03.383Z,6.47
2023-05-10T03:38:31.411Z,9.17
2023-05-10T03:41:00.681Z,5.27
2023-05-10T03:43:28.835Z,6.53
2023-05-10T03:45:56.709Z,6.53
2023-05-10T03:48:24.545Z,6.03
2023-05-10T03:50:52.536Z,5.00
2023-05-10T03:53:20.320Z,7.17
2023-05-10T03:55:48.150Z,6.17
2023-05-10T03:58:17.501Z,6.50
2023-05-10T04:00:46.394Z,7.07
2023-05-10T04:03:15.683Z,5.67
2023-05-10T04:05:43.645Z,8.03
2023-05-10T04:08:11.526Z,6.53
2023-05-10T04:10:39.512Z,5.50
2023-05-10T04:13:07.432Z,10.67
2023-05-10T04:15:36.943Z,6.93
2023-05-10T04:18:06.501Z,7.10
2023-05-10T04:20:35.953Z,8.97
2023-05-10T04:23:04.000Z,8.53
2023-05-10T04:25:31.830Z,7.33
2023-05-10T04:27:59.738Z,5.67
2023-05-10T04:30:29.459Z,8.80
2023-05-10T04:32:59.185Z,5.93
2023-05-10T04:35:27.059Z,5.37
2023-05-10T04:37:54.967Z,6.00
2023-05-10T04:40:22.768Z,10.30
2023-05-10T04:42:50.548Z,6.37
2023-05-10T04:45:18.596Z,6.90
2023-05-10T04:47:46.457Z,4.60
2023-05-10T04:50:15.867Z,9.43
2023-05-10T04:52:43.859Z,5.87
2023-05-10T04:55:11.678Z,6.70
2023-05-10T04:57:39.694Z,6.60
2023-05-10T05:00:09.285Z,7.43
2023-05-10T05:02:37.173Z,7.60
2023-05-10T05:05:05.942Z,5.13
2023-05-10T05:07:35.141Z,4.93
2023-05-10T05:10:02.997Z,4.33
2023-05-10T05:12:31.356Z,9.23
2023-05-10T05:14:59.174Z,5.23
2023-05-10T05:17:27.153Z,9.27
2023-05-10T05:19:57.665Z,7.10
2023-05-10T05:22:28.462Z,4.80
2023-05-10T05:24:59.025Z,8.40
2023-05-10T05:27:28.724Z,7.13
2023-05-10T05:29:56.762Z,5.70
2023-05-10T05:32:24.873Z,6.63
2023-05-10T05:34:53.010Z,4.80
2023-05-10T05:37:22.200Z,4.30
2023-05-10T05:39:50.624Z,3.90
2023-05-10T05:42:19.985Z,5.50
2023-05-10T05:44:47.906Z,6.13
2023-05-10T05:47:15.698Z,7.87
2023-05-10T05:49:43.587Z,5.73
2023-05-10T05:52:11.668Z,4.77
2023-05-10T05:54:39.469Z,6.60
2023-05-10T05:57:07.448Z,5.03
2023-05-10T05:59:38.015Z,6.70
2023-05-10T06:02:05.913Z,4.43
2023-05-10T06:04:33.955Z,4.07
2023-05-10T06:07:01.875Z,7.50
2023-05-10T06:09:29.772Z,3.50
2023-05-10T06:11:58.138Z,7.63
2023-05-10T06:14:26.015Z,3.50
2023-05-10T06:16:55.290Z,5.27
2023-05-10T06:19:23.217Z,4.10
2023-05-10T06:21:53.164Z,7.20
2023-05-10T06:24:22.168Z,4.93
2023-05-10T06:26:50.939Z,5.77
2023-05-10T06:29:18.821Z,4.23
2023-05-10T06:31:46.739Z,3.93
2023-05-10T06:34:16.315Z,4.03
2023-05-10T06:36:44.756Z,4.27
2023-05-10T06:39:13.218Z,5.23
2023-05-10T06:41:41.448Z,5.40
2023-05-10T06:44:09.423Z,6.00
2023-05-10T06:46:37.447Z,3.57
2023-05-10T06:49:05.466Z,4.47
2023-05-10T06:51:34.648Z,5.13
2023-05-10T06:54:02.815Z,6.90
2023-05-10T06:56:30.739Z,5.90
2023-05-10T06:58:58.690Z,9.57
2023-05-10T07:01:26.927Z,5.33
2023-05-10T07:03:54.864Z,4.73
2023-05-10T07:06:33.043Z,3.00
2023-05-10T07:09:03.235Z,3.73
2023-05-10T07:11:31.045Z,3.17
2023-05-10T07:13:58.885Z,4.90
2023-05-10T07:16:28.744Z,3.37
2023-05-10T07:18:56.839Z,3.90
2023-05-10T07:21:44.281Z,4.00
2023-05-10T07:24:13.533Z,3.20
2023-05-10T07:26:41.414Z,5.63
2023-05-10T07:29:09.333Z,4.13
2023-05-10T07:31:37.402Z,3.60
2023-05-10T07:34:05.446Z,3.30
2023-05-10T07:36:33.385Z,5.60
2023-05-10T07:39:02.455Z,4.93
2023-05-10T07:41:31.652Z,4.70
2023-05-10T07:43:59.511Z,5.30
2023-05-10T07:46:27.472Z,3.73
2023-05-10T07:48:55.345Z,8.23
2023-05-10T07:51:23.220Z,4.17
2023-05-10T07:53:51.129Z,3.63
2023-05-10T07:56:23.808Z,5.97
2023-05-10T07:58:53.220Z,4.93
2023-05-10T08:01:21.333Z,7.87
2023-05-10T08:03:49.674Z,3.83
2023-05-10T08:06:18.958Z,7.50
2023-05-10T08:08:50.328Z,6.13
2023-05-10T08:11:18.594Z,4.03
2023-05-10T08:13:58.562Z,5.90
2023-05-10T08:16:27.865Z,5.80
2023-05-10T08:18:58.545Z,4.13
2023-05-10T08:21:26.974Z,5.17
2023-05-10T08:23:55.120Z,3.97
2023-05-10T08:26:23.052Z,2.87
2023-05-10T08:28:50.895Z,3.07
2023-05-10T08:31:18.993Z,3.43
2023-05-10T08:33:48.259Z,4.63
2023-05-10T08:36:20.580Z,4.20
2023-05-10T08:38:50.217Z,6.30
2023-05-10T08:41:18.362Z,5.30
2023-05-10T08:43:47.235Z,3.67
2023-05-10T08:46:17.772Z,5.23
2023-05-10T08:48:48.118Z,5.53
2023-05-10T08:51:20.107Z,5.43
2023-05-10T08:53:48.254Z,4.60
2023-05-10T08:56:18.728Z,3.83
2023-05-10T08:58:46.640Z,5.73
2023-05-10T09:01:15.761Z,5.10
2023-05-10T09:03:43.862Z,5.33
2023-05-10T09:06:14.029Z,3.20
2023-05-10T09:08:43.765Z,5.57
2023-05-10T09:11:12.023Z,7.90
2023-05-10T09:13:39.963Z,3.97
2023-05-10T09:16:20.581Z,3.93
2023-05-10T09:18:50.311Z,3.07
2023-05-10T09:21:21.383Z,6.40
2023-05-10T09:23:51.011Z,5.20
2023-05-10T09:26:19.207Z,7.63
2023-05-10T09:28:54.609Z,2.97
2023-05-10T09:31:22.569Z,3.40
2023-05-10T09:33:51.641Z,4.73
2023-05-10T09:36:20.870Z,4.47
2023-05-10T09:38:49.801Z,3.53
2023-05-10T09:41:19.416Z,6.20
2023-05-10T09:43:47.265Z,5.77
2023-05-10T09:46:15.335Z,3.63
2023-05-10T09:48:44.609Z,2.77
2023-05-10T09:51:12.532Z,5.27
2023-05-10T09:53:41.695Z,3.00
2023-05-10T09:56:09.565Z,5.23
2023-05-10T09:58:38.981Z,2.60
2023-05-10T10:01:06.808Z,4.37
2023-05-10T10:03:34.694Z,2.80
2023-05-10T10:06:02.700Z,2.83
2023-05-10T10:08:30.773Z,2.83
2023-05-10T10:11:00.130Z,4.07
2023-05-10T10:13:27.974Z,4.27
2023-05-10T10:15:56.461Z,4.43
2023-05-10T10:18:28.337Z,5.03
2023-05-10T10:20:56.916Z,5.63
2023-05-10T10:23:24.863Z,3.43
2023-05-10T10:25:52.915Z,3.47
2023-05-10T10:28:28.991Z,2.53
2023-05-10T10:30:57.484Z,4.23
2023-05-10T10:33:42.775Z,2.60
2023-05-10T10:36:10.696Z,3.53
2023-05-10T10:38:40.536Z,3.87
2023-05-10T10:41:12.963Z,2.93
2023-05-10T10:43:42.216Z,2.60
2023-05-10T10:46:15.103Z,3.03
2023-05-10T10:48:43.687Z,2.80
2023-05-10T10:51:13.010Z,3.77
2023-05-10T10:53:43.255Z,4.23
2023-05-10T10:56:14.393Z,4.37
2023-05-10T10:58:44.429Z,3.17
2023-05-10T11:01:16.735Z,4.97
2023-05-10T11:04:19.625Z,2.60
2023-05-10T11:06:47.678Z,2.80
2023-05-10T11:09:15.942Z,3.37
2023-05-10T11:11:55.835Z,4.20
2023-05-10T11:14:25.121Z,6.37
2023-05-10T11:16:53.236Z,2.70
2023-05-10T11:19:21.306Z,5.43
2023-05-10T11:21:50.582Z,5.13
2023-05-10T11:24:19.618Z,4.80
2023-05-10T11:26:48.075Z,3.10
2023-05-10T11:29:15.916Z,3.70
2023-05-10T11:31:49.254Z,6.90
2023-05-10T11:34:25.860Z,7.70
2023-05-10T11:36:55.050Z,4.00
2023-05-10T11:39:23.171Z,3.80
2023-05-10T11:41:51.537Z,3.60
2023-05-10T11:44:19.459Z,2.70
2023-05-10T11:46:48.842Z,4.33
2023-05-10T11:49:17.000Z,4.63
2023-05-10T11:51:44.992Z,4.60
2023-05-10T11:54:13.403Z,7.23
2023-05-10T11:56:42.235Z,6.47
2023-05-10T11:59:10.169Z,5.20
2023-05-10T12:01:38.255Z,6.77
2023-05-10T12:04:08.073Z,9.83
2023-05-10T12:06:39.745Z,6.80
2023-05-10T12:09:08.280Z,3.90
2023-05-10T12:11:41.195Z,7.30
2023-05-10T12:14:11.481Z,8.20
2023-05-10T12:16:39.421Z,3.77
2023-05-10T12:19:08.744Z,5.63
2023-05-10T12:21:36.666Z,3.40
2023-05-10T12:24:05.856Z,3.00
2023-05-10T12:26:34.222Z,3.97
2023-05-10T12:29:16.586Z,4.13
2023-05-10T12:31:57.837Z,7.23
2023-05-10T12:34:33.664Z,4.93
2023-05-10T12:37:01.925Z,4.23
2023-05-10T12:39:40.761Z,5.37
2023-05-10T12:42:08.662Z,6.07
2023-05-10T12:44:36.422Z,7.50
2023-05-10T12:47:04.205Z,4.00
2023-05-10T12:49:33.568Z,4.27
2023-05-10T12:52:01.365Z,6.63
2023-05-10T12:54:29.530Z,4.33
2023-05-10T12:56:57.344Z,4.40
2023-05-10T12:59:25.324Z,4.53
2023-05-10T13:01:53.208Z,4.73
2023-05-10T13:04:21.148Z,6.77
2023-05-10T13:06:50.297Z,5.73
2023-05-10T13:09:18.182Z,4.37
2023-05-10T13:11:46.477Z,4.40
2023-05-10T13:14:14.355Z,4.83
2023-05-10T13:16:42.245Z,3.47
2023-05-10T13:19:10.251Z,3.27
2023-05-10T13:21:38.199Z,5.43
2023-05-10T13:24:07.444Z,4.77
2023-05-10T13:26:35.452Z,2.57
2023-05-10T13:29:03.323Z,4.90
2023-05-10T13:31:31.214Z,7.17
2023-05-10T13:33:59.098Z,4.70
2023-05-10T13:36:27.287Z,3.60
2023-05-10T13:38:55.123Z,3.07
2023-05-10T13:41:24.272Z,4.93
2023-05-10T13:43:52.124Z,3.60
2023-05-10T13:46:20.363Z,5.20
2023-05-10T13:48:48.236Z,4.60
2023-05-10T13:51:16.123Z,4.80
2023-05-10T13:53:43.963Z,3.73
2023-05-10T13:56:11.902Z,6.30
2023-05-10T13:58:41.187Z,5.53
2023-05-10T14:01:08.998Z,2.57
2023-05-10T14:03:36.857Z,3.87
2023-05-10T14:06:05.101Z,2.37
2023-05-10T14:08:32.979Z,2.47
2023-05-10T14:11:00.830Z,6.37
2023-05-10T14:13:28.682Z,3.67
2023-05-10T14:15:57.899Z,6.20
2023-05-10T14:18:25.906Z,4.60
2023-05-10T14:20:53.788Z,5.07
2023-05-10T14:23:24.958Z,4.33
2023-05-10T14:25:52.971Z,2.57
2023-05-10T14:28:21.710Z,5.03
2023-05-10T14:30:49.672Z,3.17
2023-05-10T14:33:19.360Z,4.60
2023-05-10T14:35:47.528Z,3.67
2023-05-10T14:38:15.503Z,4.53
2023-05-10T14:40:43.682Z,4.60
2023-05-10T14:43:11.535Z,5.40
2023-05-10T14:45:39.466Z,3.30
2023-05-10T14:48:07.705Z,5.23
2023-05-10T14:50:37.632Z,2.43
2023-05-10T14:53:05.812Z,4.10
2023-05-10T14:55:33.973Z,4.13
2023-05-10T14:58:01.903Z,3.90
2023-05-10T15:00:30.840Z,5.93
2023-05-10T15:02:59.533Z,6.87
2023-05-10T15:05:27.932Z,3.10
2023-05-10T15:07:57.563Z,7.60
2023-05-10T15:10:25.471Z,3.63
2023-05-10T15:12:53.436Z,4.23
2023-05-10T15:15:21.401Z,3.30
2023-05-10T15:17:49.797Z,3.87
2023-05-10T15:20:17.926Z,6.00
2023-05-10T15:22:45.729Z,2.97
2023-05-10T15:25:15.260Z,4.17
2023-05-10T15:27:44.439Z,5.30
2023-05-10T15:30:13.132Z,4.73
2023-05-10T15:32:41.438Z,3.47
2023-05-10T15:35:10.301Z,3.27
2023-05-10T15:37:38.232Z,3.47
2023-05-10T15:40:07.406Z,2.90
2023-05-10T15:42:36.604Z,7.13
2023-05-10T15:45:05.396Z,5.03
2023-05-10T15:47:33.829Z,4.67
2023-05-10T15:50:02.006Z,5.43
2023-05-10T15:52:29.825Z,3.40
2023-05-10T15:54:57.678Z,5.93
2023-05-10T15:57:25.626Z,2.87
2023-05-10T15:59:54.797Z,2.73
2023-05-10T16:02:23.528Z,4.77
2023-05-10T16:04:51.576Z,6.67
2023-05-10T16:07:19.414Z,4.57
2023-05-10T16:09:49.278Z,4.17
2023-05-10T16:12:17.128Z,11.30
2023-05-10T16:14:44.973Z,5.83
2023-05-10T16:17:15.108Z,3.80
2023-05-10T16:19:43.058Z,3.37
2023-05-10T16:22:10.921Z,4.33
2023-05-10T16:24:38.843Z,4.73
2023-05-10T16:27:06.959Z,5.50
2023-05-10T16:29:34.746Z,3.60
2023-05-10T16:32:02.605Z,4.17
2023-05-10T16:34:31.879Z,5.90
2023-05-10T16:36:59.726Z,3.97
2023-05-10T16:39:27.569Z,3.97
2023-05-10T16:41:55.396Z,3.97
2023-05-10T16:44:25.704Z,3.77
2023-05-10T16:46:54.932Z,4.10
2023-05-10T16:49:25.249Z,4.93
2023-05-10T16:51:55.456Z,3.73
2023-05-10T16:54:23.516Z,6.77
2023-05-10T16:56:51.447Z,3.53
2023-05-10T16:59:19.320Z,4.10
2023-05-10T17:01:47.246Z,3.60
2023-05-10T17:04:15.310Z,4.63
2023-05-10T17:06:43.466Z,4.93
2023-05-10T17:09:13.130Z,8.53
2023-05-10T17:11:41.859Z,7.07
2023-05-10T17:14:10.069Z,4.57
2023-05-10T17:16:38.100Z,5.30
2023-05-10T17:19:06.044Z,5.27
2023-05-10T17:21:34.006Z,7.03
2023-05-10T17:24:01.809Z,6.33
2023-05-10T17:26:32.188Z,5.93
2023-05-10T17:29:00.044Z,5.57
2023-05-10T17:31:28.193Z,10.60
2023-05-10T17:33:56.196Z,8.53
2023-05-10T17:36:24.172Z,5.47
2023-05-10T17:38:55.261Z,6.40
2023-05-10T17:41:23.334Z,6.70
2023-05-10T17:43:53.183Z,5.90
2023-05-10T17:46:21.106Z,5.93
2023-05-10T17:48:48.961Z,5.57
2023-05-10T17:51:16.925Z,6.50
2023-05-10T17:53:45.283Z,5.23
2023-05-10T17:56:13.262Z,5.27
2023-05-10T17:58:41.724Z,6.10
2023-05-10T18:01:11.079Z,6.13
2023-05-10T18:03:39.237Z,6.03
2023-05-10T18:06:07.400Z,6.17
2023-05-10T18:08:35.437Z,12.67
2023-05-10T18:11:03.396Z,5.80
2023-05-10T18:13:31.270Z,10.67
2023-05-10T18:15:59.547Z,9.30
2023-05-10T18:18:28.872Z,10.87
2023-05-10T18:20:58.230Z,6.13
2023-05-10T18:23:26.286Z,6.53
2023-05-10T18:25:54.215Z,7.57
2023-05-10T18:28:22.140Z,7.97
2023-05-10T18:30:50.098Z,8.40
2023-05-10T18:33:17.957Z,6.57
2023-05-10T18:35:47.334Z,7.33
2023-05-10T18:38:15.243Z,6.70
2023-05-10T18:40:43.318Z,6.90
2023-05-10T18:43:11.356Z,6.93
2023-05-10T18:45:39.927Z,7.87
2023-05-10T18:48:08.336Z,6.73
2023-05-10T18:50:36.236Z,8.77
2023-05-10T18:53:06.494Z,9.33
2023-05-10T18:55:34.546Z,8.83
2023-05-10T18:58:02.426Z,8.30
2023-05-10T19:00:30.230Z,7.30
2023-05-10T19:02:58.122Z,7.77
2023-05-10T19:05:29.821Z,8.87
2023-05-10T19:07:57.599Z,7.33
2023-05-10T19:10:26.843Z,10.97
2023-05-10T19:12:54.693Z,8.13
2023-05-10T19:15:22.705Z,8.17
2023-05-10T19:17:51.626Z,9.87
2023-05-10T19:20:20.578Z,6.40
2023-05-10T19:25:28.889Z,6.93
2023-05-10T19:27:58.410Z,8.83
2023-05-10T19:30:26.557Z,8.57
2023-05-10T19:32:54.564Z,6.47
2023-05-10T19:35:22.449Z,7.80
2023-05-10T19:37:50.339Z,6.57
2023-05-10T19:40:18.446Z,6.40
2023-05-10T19:42:47.575Z,7.60
2023-05-10T19:45:17.520Z,7.37
2023-05-10T19:47:45.652Z,7.30
2023-05-10T19:50:13.848Z,8.13
2023-05-10T19:52:41.801Z,7.20
2023-05-10T19:55:10.487Z,7.57
2023-05-10T19:57:38.691Z,8.73
2023-05-10T20:00:08.002Z,7.87
2023-05-10T20:02:40.463Z,10.07
2023-05-10T20:05:09.186Z,8.13
2023-05-10T20:07:37.334Z,9.30
2023-05-10T20:10:05.646Z,7.70
2023-05-10T20:12:33.518Z,6.83
2023-05-10T20:15:01.347Z,9.20
2023-05-10T20:17:29.228Z,10.13
2023-05-10T20:19:58.428Z,9.73
2023-05-10T20:22:26.694Z,7.17
2023-05-10T20:24:56.246Z,7.97
2023-05-10T20:27:24.972Z,7.37
2023-05-10T20:29:53.130Z,7.83
2023-05-10T20:32:21.046Z,8.80
2023-05-10T20:34:49.668Z,8.70
2023-05-10T20:37:18.888Z,9.00
2023-05-10T20:39:49.063Z,8.03
2023-05-10T20:42:19.190Z,8.03
2023-05-10T20:44:47.060Z,7.63
2023-05-10T20:47:15.552Z,8.73
2023-05-10T20:49:43.982Z,7.70
2023-05-10T20:52:11.900Z,7.90
2023-05-10T20:54:41.180Z,7.63
2023-05-10T20:57:09.213Z,9.73
2023-05-10T20:59:37.040Z,10.50
2023-05-10T21:02:05.048Z,9.20
2023-05-10T21:04:32.939Z,12.70
2023-05-10T21:07:00.852Z,15.03
2023-05-10T21:09:28.801Z,9.13
2023-05-10T21:11:58.914Z,26.60
2023-05-10T21:14:26.792Z,10.00
2023-05-10T21:16:54.676Z,10.10
2023-05-10T21:19:22.571Z,9.53
2023-05-10T21:21:50.431Z,10.50
2023-05-10T21:24:18.430Z,9.00
2023-05-10T21:26:46.734Z,9.77
2023-05-10T21:29:15.963Z,9.73
2023-05-10T21:31:43.923Z,12.23
2023-05-10T21:34:13.842Z,9.67
2023-05-10T21:36:41.698Z,11.10
2023-05-10T21:39:09.665Z,10.20
2023-05-10T21:41:37.637Z,9.50
2023-05-10T21:44:06.051Z,10.60
2023-05-10T21:46:35.796Z,11.50
2023-05-10T21:49:04.353Z,11.90
2023-05-10T21:51:33.265Z,12.50
2023-05-10T21:54:01.995Z,9.00
2023-05-10T21:56:30.857Z,10.03
2023-05-10T21:58:59.962Z,10.10
2023-05-10T22:01:28.858Z,13.57
2023-05-10T22:03:58.262Z,9.37
2023-05-10T22:06:26.148Z,10.30
2023-05-10T22:08:54.280Z,12.03
2023-05-10T22:11:23.125Z,10.60
2023-05-10T22:13:51.089Z,11.03
2023-05-10T22:16:18.957Z,9.73
2023-05-10T22:18:47.157Z,10.03
2023-05-10T22:21:16.454Z,10.60
2023-05-10T22:23:44.431Z,13.53
2023-05-10T22:26:12.408Z,11.67
2023-05-10T22:28:40.266Z,10.97
2023-05-10T22:31:10.409Z,11.07
2023-05-10T22:33:38.428Z,10.77
2023-05-10T22:36:07.056Z,11.70
2023-05-10T22:38:36.377Z,12.50
2023-05-10T22:41:04.228Z,12.77
2023-05-10T22:43:32.016Z,12.33
2023-05-10T22:45:59.860Z,14.10
2023-05-10T22:48:29.417Z,12.30
2023-05-10T22:50:57.381Z,14.27
2023-05-10T22:53:25.771Z,13.23
2023-05-10T22:55:55.112Z,12.83
2023-05-10T22:58:23.061Z,13.50
2023-05-10T23:00:51.116Z,12.40
2023-05-10T23:03:19.060Z,11.73
2023-05-10T23:05:48.077Z,14.60
2023-05-10T23:08:15.935Z,13.70
2023-05-10T23:10:43.833Z,13.87
2023-05-10T23:13:13.047Z,14.37
2023-05-10T23:15:59.205Z,13.50
2023-05-10T23:18:27.135Z,13.53
2023-05-10T23:20:55.098Z,13.13
2023-05-10T23:23:23.071Z,17.57
2023-05-10T23:25:51.336Z,12.40
2023-05-10T23:28:20.485Z,14.07
2023-05-10T23:30:48.375Z,13.53
2023-05-10T23:33:16.232Z,14.00
2023-05-10T23:35:44.268Z,14.37
2023-05-10T23:38:12.231Z,15.10
2023-05-10T23:40:40.090Z,13.17
2023-05-10T23:43:08.048Z,13.90
2023-05-10T23:45:37.266Z,13.63
2023-05-10T23:48:05.517Z,16.00
2023-05-10T23:50:33.371Z,13.60
2023-05-10T23:53:01.882Z,15.43
2023-05-10T23:55:29.743Z,14.80
2023-05-10T23:57:57.684Z,13.53
